Time;durP1;ratioP1;P1;durP2;ratioP2;P2;SDS_P1;SDS_P2;PMS_P1;PMS_P2;Temp;Humidity;BMP_temperature;BMP_pressure;BME280_temperature;BME280_humidity;BME280_pressure;Samples;Min_cycle;Max_cycle;Signal;HPM_P1;HPM_P2
2023/01/03 00:01:26;;;;;;;0.47;0.47;;;;;;;1.81;100.00;100075.06;5026254;28;20288;-69
2023/01/03 00:03:54;;;;;;;0.50;0.50;;;;;;;1.82;100.00;100069.13;5026185;28;20093;-70
2023/01/03 00:06:26;;;;;;;0.50;0.50;;;;;;;1.76;100.00;100089.47;5041194;28;20021;-69
2023/01/03 00:08:53;;;;;;;0.52;0.52;;;;;;;1.71;100.00;100100.47;5025957;28;20045;-69
2023/01/03 00:14:08;;;;;;;0.50;0.50;;;;;;;1.57;100.00;100115.50;5024600;28;20049;-70
2023/01/03 00:16:34;;;;;;;0.50;0.50;;;;;;;1.50;100.00;100125.56;5025773;28;20022;-69
2023/01/03 00:18:59;;;;;;;0.50;0.50;;;;;;;1.39;100.00;100127.84;5024503;28;20110;-70
2023/01/03 00:21:25;;;;;;;0.50;0.50;;;;;;;1.26;100.00;100136.91;5024148;28;20037;-69
2023/01/03 00:23:50;;;;;;;0.50;0.50;;;;;;;1.13;100.00;100145.94;5025772;28;20021;-69
2023/01/03 00:26:15;;;;;;;0.40;0.40;;;;;;;1.01;100.00;100156.72;5026339;28;20087;-69
2023/01/03 00:28:42;;;;;;;0.50;0.50;;;;;;;0.91;100.00;100160.72;5025955;28;20081;-69
2023/01/03 00:31:10;;;;;;;0.52;0.52;;;;;;;0.80;100.00;100170.66;5025744;28;20091;-69
2023/01/03 00:33:37;;;;;;;0.50;0.50;;;;;;;0.70;100.00;100175.50;5040615;28;20030;-69
2023/01/03 00:36:04;;;;;;;0.50;0.50;;;;;;;0.63;100.00;100183.81;5025191;28;20073;-69
2023/01/03 00:38:30;;;;;;;0.50;0.50;;;;;;;0.58;100.00;100193.03;5025252;28;20026;-70
2023/01/03 00:41:06;;;;;;;0.50;0.50;;;;;;;0.48;100.00;100202.97;5025551;28;20022;-68
2023/01/03 00:43:32;;;;;;;0.50;0.50;;;;;;;0.46;100.00;100198.66;5025850;28;20029;-68
2023/01/03 00:45:58;;;;;;;0.50;0.50;;;;;;;0.41;100.00;100218.09;5025532;28;20033;-69
2023/01/03 00:48:23;;;;;;;0.60;0.60;;;;;;;0.35;100.00;100216.22;5025710;28;20109;-68
2023/01/03 00:50:49;;;;;;;0.60;0.60;;;;;;;0.26;100.00;100209.13;5025486;28;20029;-69
2023/01/03 00:53:14;;;;;;;0.60;0.60;;;;;;;0.22;100.00;100237.97;5025023;28;20018;-69
2023/01/03 00:55:40;;;;;;;0.55;0.55;;;;;;;0.20;100.00;100240.47;5023693;28;20010;-70
2023/01/03 00:58:05;;;;;;;0.50;0.50;;;;;;;0.14;100.00;100242.81;5025203;28;20026;-70
2023/01/03 01:00:30;;;;;;;0.60;0.60;;;;;;;0.23;100.00;100245.66;5025286;28;20076;-70
2023/01/03 01:02:56;;;;;;;0.57;0.57;;;;;;;0.26;100.00;100254.25;5025361;28;20021;-69
2023/01/03 01:05:21;;;;;;;0.50;0.50;;;;;;;0.14;100.00;100247.94;5025228;28;20026;-70
2023/01/03 01:07:47;;;;;;;0.50;0.50;;;;;;;0.17;100.00;100265.91;5025235;28;20033;-70
2023/01/03 01:10:13;;;;;;;0.50;0.50;;;;;;;0.14;100.00;100264.94;5025028;28;20072;-70
2023/01/03 01:12:38;;;;;;;0.50;0.50;;;;;;;0.05;100.00;100262.97;5025305;28;20022;-70
2023/01/03 01:15:04;;;;;;;0.50;0.50;;;;;;;0.05;100.00;100285.94;5024990;28;20029;-70
2023/01/03 01:17:30;;;;;;;0.50;0.50;;;;;;;0.01;100.00;100291.72;5025137;28;20053;-70
2023/01/03 01:19:55;;;;;;;0.52;0.52;;;;;;;0.02;100.00;100302.00;5024963;28;20058;-70
2023/01/03 01:22:21;;;;;;;0.50;0.50;;;;;;;0.02;100.00;100302.00;5023432;28;20033;-70
2023/01/03 01:24:46;;;;;;;0.50;0.50;;;;;;;0.04;100.00;100309.69;5024931;28;20037;-68
2023/01/03 01:27:11;;;;;;;0.50;0.50;;;;;;;-0.02;100.00;100311.22;5039956;28;20029;-69
2023/01/03 01:29:38;;;;;;;0.50;0.50;;;;;;;0.02;100.00;100322.41;5024972;28;20026;-69
2023/01/03 01:32:03;;;;;;;0.60;0.60;;;;;;;0.01;100.00;100324.91;5040017;28;20026;-69
2023/01/03 01:34:29;;;;;;;0.60;0.60;;;;;;;-0.02;100.00;100328.25;5044658;28;20026;-70
2023/01/03 01:36:55;;;;;;;0.50;0.50;;;;;;;-0.08;100.00;100328.88;5028536;28;20398;-70
2023/01/03 01:39:23;;;;;;;0.50;0.50;;;;;;;-0.04;100.00;100347.75;5028872;28;20336;-69
2023/01/03 01:44:41;;;;;;;0.60;0.60;;;;;;;0.07;100.00;100358.31;5028709;28;20165;-70
2023/01/03 01:47:29;;;;;;;0.60;0.60;;;;;;;0.10;100.00;100355.84;5043798;28;20034;-70
2023/01/03 01:50:16;;;;;;;0.60;0.60;;;;;;;0.10;100.00;100359.28;5028874;28;20060;-68
2023/01/03 01:52:51;;;;;;;0.50;0.50;;;;;;;0.08;100.00;100367.72;5029106;28;20113;-69
2023/01/03 01:55:23;;;;;;;0.50;0.50;;;;;;;0.05;100.00;100378.69;5028200;28;20346;-68
2023/01/03 01:57:49;;;;;;;0.60;0.60;;;;;;;0.06;100.00;100387.22;5027315;28;20026;-69
2023/01/03 02:00:14;;;;;;;0.50;0.50;;;;;;;0.07;100.00;100397.47;5029093;28;20098;-68
2023/01/03 02:02:42;;;;;;;0.50;0.50;;;;;;;0.11;100.00;100399.31;5028369;28;20082;-69
2023/01/03 02:05:08;;;;;;;0.60;0.60;;;;;;;0.14;100.00;100398.56;5028232;28;20037;-69
2023/01/03 02:07:34;;;;;;;0.50;0.50;;;;;;;0.14;100.00;100397.69;5028563;28;20057;-68
2023/01/03 02:10:00;;;;;;;0.50;0.50;;;;;;;0.13;100.00;100385.75;5028416;28;20018;-68
2023/01/03 02:15:39;;;;;;;0.50;0.50;;;;;;;-0.03;100.00;100416.69;5028144;28;20032;-68
2023/01/03 02:18:14;;;;;;;0.43;0.43;;;;;;;0.01;100.00;100433.00;5028728;28;20097;-68
2023/01/03 02:21:04;;;;;;;0.50;0.50;;;;;;;0.07;100.00;100427.22;5028528;28;20026;-70
2023/01/03 02:23:54;;;;;;;0.60;0.60;;;;;;;-0.01;100.00;100434.63;5027807;28;20022;-70
2023/01/03 02:26:38;;;;;;;0.50;0.50;;;;;;;0.06;100.00;100449.38;5043519;28;20044;-70
2023/01/03 02:29:19;;;;;;;0.50;0.50;;;;;;;0.10;100.00;100452.88;5028587;28;20026;-70
2023/01/03 02:32:02;;;;;;;0.57;0.57;;;;;;;0.03;100.00;100450.94;5028109;28;20025;-71
2023/01/03 02:34:49;;;;;;;0.50;0.50;;;;;;;-0.05;100.00;100460.88;5028268;28;20026;-71
2023/01/03 02:37:29;;;;;;;0.50;0.50;;;;;;;-0.18;100.00;100444.25;5027969;28;20054;-70
2023/01/03 02:40:18;;;;;;;0.50;0.50;;;;;;;-0.15;100.00;100455.44;5027809;28;20125;-71
2023/01/03 02:43:01;;;;;;;0.50;0.50;;;;;;;-0.19;100.00;100455.28;5028054;28;20085;-70
2023/01/03 02:45:38;;;;;;;0.50;0.50;;;;;;;-0.21;100.00;100462.00;5027725;28;20026;-69
2023/01/03 02:48:14;;;;;;;0.50;0.50;;;;;;;-0.20;100.00;100461.16;5027755;28;20033;-69
2023/01/03 02:50:48;;;;;;;0.60;0.60;;;;;;;-0.20;100.00;100458.63;5027512;28;20433;-70
2023/01/03 02:53:24;;;;;;;0.50;0.50;;;;;;;-0.19;100.00;100465.47;5027700;28;20033;-70
2023/01/03 02:55:53;;;;;;;0.50;0.50;;;;;;;-0.19;100.00;100460.38;5027550;28;20034;-71
2023/01/03 02:58:24;;;;;;;0.50;0.50;;;;;;;-0.18;100.00;100464.66;5027177;28;20046;-71
2023/01/03 03:00:54;;;;;;;0.50;0.50;;;;;;;-0.19;100.00;100470.59;5027844;28;20021;-72
2023/01/03 03:03:24;;;;;;;0.50;0.50;;;;;;;-0.21;100.00;100472.19;5042939;28;20029;-72
2023/01/03 03:06:07;;;;;;;0.50;0.50;;;;;;;-0.23;100.00;100476.38;5027324;28;20379;-73
2023/01/03 03:08:33;;;;;;;0.50;0.50;;;;;;;-0.27;100.00;100491.56;5027188;28;20034;-71
2023/01/03 03:13:47;;;;;;;0.50;0.50;;;;;;;-0.08;100.00;100507.56;5027517;28;20032;-72
2023/01/03 03:25:23;;;;;;;0.50;0.50;;;;;;;-0.07;100.00;100529.72;5026657;28;20104;-71
2023/01/03 03:30:40;;;;;;;0.52;0.52;;;;;;;-0.01;100.00;100546.94;5026812;28;20100;-70
2023/01/03 03:33:08;;;;;;;0.60;0.60;;;;;;;-0.01;100.00;100547.81;5025855;28;20032;-70
2023/01/03 03:35:54;;;;;;;0.50;0.50;;;;;;;0.08;100.00;100556.66;5026762;28;20026;-70
2023/01/03 03:38:26;;;;;;;0.50;0.50;;;;;;;0.09;100.00;100555.81;5025775;28;20489;-70
2023/01/03 03:46:52;;;;;;;0.60;0.60;;;;;;;0.21;100.00;100558.81;5026880;28;20037;-70
2023/01/03 03:49:37;;;;;;;0.50;0.50;;;;;;;0.24;100.00;100570.81;5025435;28;20097;-70
2023/01/03 03:52:06;;;;;;;0.50;0.50;;;;;;;0.24;100.00;100563.16;5041958;28;20057;-70
2023/01/03 03:54:35;;;;;;;0.55;0.55;;;;;;;0.19;100.00;100550.22;5026374;28;20022;-70
2023/01/03 03:57:09;;;;;;;0.50;0.50;;;;;;;0.30;100.00;100560.84;5025966;28;20033;-69
2023/01/03 03:59:37;;;;;;;0.57;0.57;;;;;;;0.29;100.00;100560.78;5026396;28;20026;-69
2023/01/03 04:02:06;;;;;;;0.60;0.60;;;;;;;0.31;100.00;100562.56;5026711;28;20040;-68
2023/01/03 04:04:43;;;;;;;0.60;0.60;;;;;;;0.37;100.00;100579.78;5026086;28;20030;-69
2023/01/03 04:07:08;;;;;;;0.50;0.50;;;;;;;0.34;100.00;100574.56;5026461;28;20037;-70
2023/01/03 04:09:34;;;;;;;0.50;0.50;;;;;;;0.41;100.00;100591.00;5026209;28;20018;-69
2023/01/03 04:11:59;;;;;;;0.50;0.50;;;;;;;0.38;100.00;100583.22;5026323;28;20474;-68
2023/01/03 04:14:25;;;;;;;0.47;0.47;;;;;;;0.44;100.00;100597.09;5026137;28;20026;-68
2023/01/03 04:16:50;;;;;;;0.50;0.50;;;;;;;0.43;100.00;100589.38;5026032;28;20026;-68
2023/01/03 04:19:16;;;;;;;0.60;0.60;;;;;;;0.39;100.00;100595.19;5026136;28;20084;-68
2023/01/03 04:21:41;;;;;;;0.60;0.60;;;;;;;0.41;100.00;100609.75;5026129;28;20436;-68
2023/01/03 04:24:07;;;;;;;0.40;0.40;;;;;;;0.44;100.00;100607.31;5025755;28;20029;-67
2023/01/03 04:26:32;;;;;;;0.50;0.50;;;;;;;0.47;100.00;100612.53;5026158;28;20026;-68
2023/01/03 04:28:58;;;;;;;0.60;0.60;;;;;;;0.49;100.00;100610.03;5026217;28;20021;-68
2023/01/03 04:31:23;;;;;;;0.50;0.50;;;;;;;0.52;100.00;100614.38;5026117;28;20084;-67
2023/01/03 04:33:49;;;;;;;0.60;0.60;;;;;;;0.55;100.00;100624.72;5025903;28;20033;-67
2023/01/03 04:36:17;;;;;;;0.60;0.60;;;;;;;0.53;100.00;100624.66;5025274;28;20054;-67
2023/01/03 04:38:42;;;;;;;0.50;0.50;;;;;;;0.58;100.00;100629.94;5040870;28;20033;-67
2023/01/03 04:41:08;;;;;;;0.50;0.50;;;;;;;0.60;100.00;100635.97;5025768;28;20034;-68
2023/01/03 04:46:18;;;;;;;0.50;0.50;;;;;;;0.65;100.00;100649.78;5025869;28;20524;-67
2023/01/03 04:48:43;;;;;;;0.40;0.40;;;;;;;0.58;100.00;100635.91;5040741;28;20089;-68
2023/01/03 04:51:09;;;;;;;0.50;0.50;;;;;;;0.72;100.00;100655.97;5025525;28;20072;-68
2023/01/03 04:53:35;;;;;;;0.50;0.50;;;;;;;0.73;100.00;100650.94;5025239;28;20136;-68
2023/01/03 04:56:00;;;;;;;0.60;0.60;;;;;;;0.74;100.00;100662.03;5025425;28;20081;-68
2023/01/03 04:58:26;;;;;;;0.43;0.43;;;;;;;0.78;100.00;100663.00;5025324;28;20025;-67
2023/01/03 05:00:51;;;;;;;0.47;0.47;;;;;;;0.78;100.00;100666.44;5025413;28;20466;-69
2023/01/03 05:03:17;;;;;;;0.50;0.50;;;;;;;0.80;100.00;100671.63;5025690;28;20022;-68
2023/01/03 05:05:42;;;;;;;0.50;0.50;;;;;;;0.77;100.00;100676.63;5025753;28;20018;-68
2023/01/03 05:08:10;;;;;;;0.50;0.50;;;;;;;0.78;100.00;100675.78;5024425;28;20030;-68
2023/01/03 05:10:40;;;;;;;0.50;0.50;;;;;;;0.74;100.00;100673.13;5025234;28;20026;-69
2023/01/03 05:13:05;;;;;;;0.50;0.50;;;;;;;0.69;100.00;100677.19;5040416;28;20056;-67
2023/01/03 05:15:34;;;;;;;0.60;0.60;;;;;;;0.62;100.00;100682.91;5025310;28;20045;-66
2023/01/03 05:17:59;;;;;;;0.57;0.57;;;;;;;0.59;100.00;100687.91;5025508;28;20022;-67
2023/01/03 05:26:01;;;;;;;0.50;0.50;;;;;;;0.44;100.00;100704.41;5025338;28;20075;-67
2023/01/03 05:28:27;;;;;;;0.57;0.57;;;;;;;0.45;100.00;100705.25;5040356;28;20328;-68
2023/01/03 05:30:52;;;;;;;0.50;0.50;;;;;;;0.45;100.00;100712.91;5025015;28;20062;-68
2023/01/03 05:33:18;;;;;;;0.60;0.60;;;;;;;0.45;100.00;100716.34;5025212;28;20045;-67
2023/01/03 05:35:47;;;;;;;0.50;0.50;;;;;;;0.46;100.00;100712.97;5039979;28;20470;-68
2023/01/03 05:38:13;;;;;;;0.60;0.60;;;;;;;0.44;100.00;100714.63;5025079;28;20030;-67
2023/01/03 05:40:38;;;;;;;0.50;0.50;;;;;;;0.49;100.00;100718.22;5025110;28;20125;-68
2023/01/03 05:43:04;;;;;;;0.50;0.50;;;;;;;0.44;100.00;100718.84;5025064;28;20525;-66
2023/01/03 05:45:29;;;;;;;0.50;0.50;;;;;;;0.44;100.00;100719.72;5040003;28;20467;-67
2023/01/03 05:47:57;;;;;;;0.50;0.50;;;;;;;0.44;100.00;100711.19;5025193;28;20034;-67
2023/01/03 05:50:24;;;;;;;0.60;0.60;;;;;;;0.54;100.00;100720.94;5024873;28;20459;-67
2023/01/03 05:52:49;;;;;;;0.50;0.50;;;;;;;0.55;100.00;100716.69;5025002;28;20109;-67
2023/01/03 05:55:15;;;;;;;0.50;0.50;;;;;;;0.56;100.00;100718.44;5025001;28;20450;-67
2023/01/03 05:57:41;;;;;;;0.50;0.50;;;;;;;0.56;100.00;100726.13;5024709;28;20064;-67
2023/01/03 06:00:07;;;;;;;0.50;0.50;;;;;;;0.57;100.00;100720.19;5024756;28;20166;-67
2023/01/03 06:02:32;;;;;;;0.50;0.50;;;;;;;0.54;100.00;100735.41;5024818;28;20018;-68
2023/01/03 06:04:58;;;;;;;0.50;0.50;;;;;;;0.53;100.00;100733.66;5024745;28;20049;-67
2023/01/03 06:07:23;;;;;;;0.50;0.50;;;;;;;0.56;100.00;100744.00;5024669;28;20033;-66
2023/01/03 06:09:49;;;;;;;0.40;0.40;;;;;;;0.57;100.00;100756.84;5024457;28;20018;-67
2023/01/03 06:12:14;;;;;;;0.50;0.50;;;;;;;0.57;100.00;100751.72;5024592;28;20036;-68
2023/01/03 06:14:39;;;;;;;0.50;0.50;;;;;;;0.54;100.00;100753.28;5025001;28;20034;-68
2023/01/03 06:19:49;;;;;;;0.50;0.50;;;;;;;0.41;100.00;100754.47;5027546;28;20029;-67
2023/01/03 06:22:14;;;;;;;0.50;0.50;;;;;;;0.35;100.00;100761.09;5028193;28;20074;-68
2023/01/03 06:24:40;;;;;;;0.50;0.50;;;;;;;0.28;100.00;100774.44;5028064;28;20373;-67
2023/01/03 06:27:05;;;;;;;0.50;0.50;;;;;;;0.22;100.00;100764.84;5028227;28;20082;-70
2023/01/03 06:29:31;;;;;;;0.50;0.50;;;;;;;0.26;100.00;100775.22;5028208;28;20083;-68
2023/01/03 06:31:56;;;;;;;0.50;0.50;;;;;;;0.24;100.00;100773.44;5028154;28;20080;-67
2023/01/03 06:34:21;;;;;;;0.50;0.50;;;;;;;0.19;100.00;100774.94;5028004;28;20041;-67
2023/01/03 06:36:47;;;;;;;0.50;0.50;;;;;;;0.14;100.00;100786.66;5027821;28;20057;-67
2023/01/03 06:39:12;;;;;;;0.60;0.60;;;;;;;0.07;100.00;100784.66;5027707;28;20025;-66
2023/01/03 06:41:37;;;;;;;0.57;0.57;;;;;;;0.03;100.00;100787.91;5027939;28;20115;-66
2023/01/03 06:44:03;;;;;;;0.60;0.60;;;;;;;0.05;100.00;100786.28;5043064;28;20090;-68
2023/01/03 06:54:43;;;;;;;0.50;0.50;;;;;;;0.03;100.00;100809.22;5027430;28;20057;-66
2023/01/03 06:57:09;;;;;;;0.50;0.50;;;;;;;0.02;100.00;100811.69;5042498;28;20049;-66
2023/01/03 06:59:34;;;;;;;0.60;0.60;;;;;;;-0.02;100.00;100815.78;5027617;28;20026;-66
2023/01/03 07:02:00;;;;;;;0.60;0.60;;;;;;;-0.04;100.00;100819.97;5027791;28;20093;-67
2023/01/03 07:04:25;;;;;;;0.50;0.50;;;;;;;-0.08;100.00;100818.09;5027593;28;20030;-68
2023/01/03 07:06:51;;;;;;;0.50;0.50;;;;;;;-0.15;100.00;100820.41;5027654;28;20033;-67
2023/01/03 07:09:16;;;;;;;0.60;0.60;;;;;;;-0.15;100.00;100824.63;5027663;28;20018;-69
2023/01/03 07:11:42;;;;;;;0.50;0.50;;;;;;;-0.17;100.00;100818.56;5027560;28;20521;-68
2023/01/03 07:14:10;;;;;;;0.50;0.50;;;;;;;-0.19;100.00;100836.38;5027660;28;20036;-68
2023/01/03 07:16:37;;;;;;;0.50;0.50;;;;;;;-0.23;100.00;100842.16;5027166;28;20014;-68
2023/01/03 07:19:05;;;;;;;0.50;0.50;;;;;;;-0.27;100.00;100845.38;5027453;28;20018;-70
2023/01/03 07:21:33;;;;;;;0.50;0.50;;;;;;;-0.29;100.00;100849.56;5027210;28;20056;-69
2023/01/03 07:24:03;;;;;;;0.50;0.50;;;;;;;-0.31;100.00;100854.59;5027027;28;20034;-69
2023/01/03 07:26:31;;;;;;;0.50;0.50;;;;;;;-0.34;100.00;100859.56;5027092;28;20034;-71
2023/01/03 07:28:57;;;;;;;0.50;0.50;;;;;;;-0.43;100.00;100838.75;5027225;28;20121;-70
2023/01/03 07:31:23;;;;;;;0.60;0.60;;;;;;;-0.44;100.00;100855.72;5026424;28;20092;-70
2023/01/03 07:33:48;;;;;;;0.60;0.60;;;;;;;-0.40;100.00;100877.16;5027199;28;20466;-70
2023/01/03 07:36:15;;;;;;;0.60;0.60;;;;;;;-0.43;100.00;100880.41;5026674;28;20053;-71
2023/01/03 07:38:43;;;;;;;0.50;0.50;;;;;;;-0.45;100.00;100886.28;5026577;28;20042;-71
2023/01/03 07:41:09;;;;;;;0.50;0.50;;;;;;;-0.48;100.00;100891.25;5026976;28;20096;-72
2023/01/03 07:43:41;;;;;;;0.60;0.60;;;;;;;-0.50;100.00;100893.72;5027038;28;20534;-71
2023/01/03 07:46:23;;;;;;;0.70;0.70;;;;;;;-0.53;100.00;100899.53;5026671;28;20498;-72
2023/01/03 07:48:55;;;;;;;0.60;0.60;;;;;;;-0.55;100.00;100901.16;5026961;28;20358;-69
2023/01/03 07:51:21;;;;;;;0.60;0.60;;;;;;;-0.54;100.00;100908.00;5026695;28;20045;-72
2023/01/03 07:53:52;;;;;;;0.50;0.50;;;;;;;-0.53;100.00;100925.03;5026402;28;20037;-70
2023/01/03 07:56:19;;;;;;;0.60;0.60;;;;;;;-0.50;100.00;100922.63;5026399;28;20085;-70
2023/01/03 07:58:46;;;;;;;0.50;0.50;;;;;;;-0.46;100.00;100920.25;5026438;28;20026;-70
2023/01/03 08:01:11;;;;;;;0.60;0.60;;;;;;;-0.43;100.00;100928.91;5026428;28;20034;-70
2023/01/03 08:03:37;;;;;;;0.50;0.50;;;;;;;-0.43;100.00;100921.25;5026481;28;20053;-71
2023/01/03 08:06:05;;;;;;;0.50;0.50;;;;;;;-0.42;100.00;100924.69;5026510;28;20045;-71
2023/01/03 08:08:31;;;;;;;0.60;0.60;;;;;;;-0.44;100.00;100924.59;5041484;28;20037;-71
2023/01/03 08:13:42;;;;;;;0.50;0.50;;;;;;;-0.55;100.00;100928.34;5026337;28;20053;-71
2023/01/03 08:16:10;;;;;;;0.60;0.60;;;;;;;-0.52;100.00;100937.03;5026490;28;20034;-71
2023/01/03 08:18:37;;;;;;;0.60;0.60;;;;;;;-0.48;100.00;100948.25;5041451;28;20017;-72
2023/01/03 08:21:03;;;;;;;0.60;0.60;;;;;;;-0.38;100.00;100946.97;5026110;28;20500;-73
2023/01/03 08:23:29;;;;;;;0.50;0.50;;;;;;;-0.23;100.00;100956.13;5025757;28;20045;-71
2023/01/03 08:26:03;;;;;;;0.60;0.60;;;;;;;-0.18;100.00;100963.19;5026078;28;20013;-72
2023/01/03 08:28:29;;;;;;;0.60;0.60;;;;;;;-0.05;100.00;100958.63;5026363;28;20076;-73
2023/01/03 08:30:55;;;;;;;0.50;0.50;;;;;;;0.10;100.00;100966.06;5026223;28;20470;-72
2023/01/03 08:33:20;;;;;;;0.45;0.45;;;;;;;0.23;100.00;100959.81;5026121;28;20057;-72
2023/01/03 08:35:55;;;;;;;0.50;0.50;;;;;;;0.35;100.00;100956.94;5025417;28;20080;-70
2023/01/03 08:38:25;;;;;;;0.50;0.50;;;;;;;0.49;100.00;100957.50;5025468;28;20022;-70
2023/01/03 08:40:52;;;;;;;0.50;0.50;;;;;;;0.58;100.00;100972.31;5025527;28;20072;-72
2023/01/03 08:43:18;;;;;;;0.50;0.50;;;;;;;0.61;100.00;100977.56;5041128;28;20037;-73
2023/01/03 08:45:46;;;;;;;0.57;0.57;;;;;;;0.68;99.92;100979.59;5025926;28;20089;-70
2023/01/03 08:48:11;;;;;;;0.50;0.50;;;;;;;0.76;99.96;100986.69;5025961;28;20076;-70
2023/01/03 08:50:37;;;;;;;0.52;0.52;;;;;;;0.87;100.00;100980.34;5025842;28;20097;-72
2023/01/03 08:53:04;;;;;;;0.50;0.50;;;;;;;1.13;99.83;100983.06;5025467;28;20533;-72
2023/01/03 08:55:30;;;;;;;0.55;0.55;;;;;;;1.28;99.57;100984.50;5025196;28;20252;-71
2023/01/03 08:57:55;;;;;;;0.50;0.50;;;;;;;1.16;99.40;100975.53;5024092;28;20041;-72
2023/01/03 09:00:21;;;;;;;0.50;0.50;;;;;;;1.14;99.16;100989.91;5025661;28;20083;-72
2023/01/03 09:02:46;;;;;;;0.50;0.50;;;;;;;1.23;99.39;101000.50;5025707;28;20407;-71
2023/01/03 09:05:12;;;;;;;0.40;0.40;;;;;;;1.56;99.40;101000.91;5025346;28;20037;-72
2023/01/03 09:07:37;;;;;;;0.50;0.50;;;;;;;2.12;99.58;101004.63;5025510;28;20029;-73
2023/01/03 09:10:03;;;;;;;0.50;0.50;;;;;;;2.45;98.85;101007.53;5025503;28;20494;-74
2023/01/03 09:12:28;;;;;;;0.50;0.50;;;;;;;2.74;98.61;101004.22;5025607;28;20536;-73
2023/01/03 09:14:54;;;;;;;0.50;0.50;;;;;;;2.99;97.90;101011.84;5025407;28;20022;-72
2023/01/03 09:17:19;;;;;;;0.50;0.50;;;;;;;2.88;97.19;101024.31;5025058;28;20030;-72
2023/01/03 09:19:44;;;;;;;0.50;0.50;;;;;;;2.64;96.87;101025.22;5025161;28;20398;-73
2023/01/03 09:22:10;;;;;;;0.50;0.50;;;;;;;2.40;96.68;101032.13;5025068;28;20032;-75
2023/01/03 09:24:36;;;;;;;0.50;0.50;;;;;;;2.46;97.25;101026.34;5024898;28;20053;-73
2023/01/03 09:27:01;;;;;;;0.50;0.50;;;;;;;2.62;96.73;101032.00;5025148;28;20080;-75
2023/01/03 09:29:26;;;;;;;0.50;0.50;;;;;;;2.44;96.24;101028.84;5024996;28;20021;-76
2023/01/03 09:31:52;;;;;;;0.50;0.50;;;;;;;2.19;95.38;101030.53;5024988;28;20022;-75
2023/01/03 09:34:17;;;;;;;0.50;0.50;;;;;;;2.01;95.52;101042.66;5025329;28;20105;-75
2023/01/03 09:36:43;;;;;;;0.50;0.50;;;;;;;1.85;95.80;101047.22;5024707;28;20046;-75
2023/01/03 09:39:08;;;;;;;0.50;0.50;;;;;;;1.73;95.70;101055.28;5024760;28;20478;-74
2023/01/03 09:41:34;;;;;;;0.50;0.50;;;;;;;1.63;95.88;101048.09;5025200;28;20079;-75
2023/01/03 09:44:05;;;;;;;0.50;0.50;;;;;;;1.81;96.51;101058.16;5025080;28;20022;-75
2023/01/03 09:46:34;;;;;;;0.60;0.60;;;;;;;2.18;97.36;101056.09;5024979;28;20466;-75
2023/01/03 09:49:02;;;;;;;0.50;0.50;;;;;;;2.73;97.86;101075.13;5025088;28;20072;-75
2023/01/03 10:06:25;;;;;;;0.50;0.50;;;;;;;6.16;86.66;101080.22;5027158;28;20553;-75
2023/01/03 10:09:22;;;;;;;0.50;0.50;;;;;;;7.17;86.81;101077.75;5028586;28;20049;-74
2023/01/03 10:12:11;;;;;;;0.43;0.43;;;;;;;8.58;84.81;101084.84;5028856;28;20029;-75
2023/01/03 10:14:48;;;;;;;0.40;0.40;;;;;;;9.43;80.16;101087.31;5028769;28;20040;-73
2023/01/03 10:17:22;;;;;;;0.40;0.40;;;;;;;10.26;80.21;101092.97;5028315;28;20026;-74
2023/01/03 10:19:59;;;;;;;0.40;0.40;;;;;;;11.13;77.58;101094.91;5043770;28;20026;-76
2023/01/03 10:22:30;;;;;;;0.40;0.40;;;;;;;11.53;75.23;101083.63;5028333;28;20030;-76
2023/01/03 10:25:13;;;;;;;0.40;0.40;;;;;;;10.68;73.28;101087.06;5028261;28;20033;-76
2023/01/03 10:27:55;;;;;;;0.45;0.45;;;;;;;9.21;74.62;101101.81;5027962;28;20033;-75
2023/01/03 10:30:49;;;;;;;0.40;0.40;;;;;;;7.70;76.77;101109.53;5028370;28;20550;-75
2023/01/03 10:33:25;;;;;;;0.50;0.50;;;;;;;6.57;79.08;101115.41;5023027;28;20037;-73
2023/01/03 10:35:50;;;;;;;0.50;0.50;;;;;;;5.87;81.38;101118.19;5027754;28;20034;-75
2023/01/03 10:38:17;;;;;;;0.50;0.50;;;;;;;5.17;83.19;101102.84;5028119;28;20029;-73
2023/01/03 10:40:46;;;;;;;0.50;0.50;;;;;;;4.76;84.74;101123.22;5027560;28;20474;-75
2023/01/03 10:43:32;;;;;;;0.50;0.50;;;;;;;4.28;86.74;101133.03;5027941;28;20141;-75
2023/01/03 10:46:03;;;;;;;0.50;0.50;;;;;;;3.92;87.95;101129.41;5027817;28;20022;-76
2023/01/03 10:48:40;;;;;;;0.50;0.50;;;;;;;3.61;89.17;101134.44;5028057;28;20053;-75
2023/01/03 10:51:29;;;;;;;0.50;0.50;;;;;;;3.35;89.79;101134.47;5027877;28;20029;-74
2023/01/03 10:53:57;;;;;;;0.50;0.50;;;;;;;3.14;90.56;101140.63;5027687;28;20079;-78
2023/01/03 10:56:24;;;;;;;0.50;0.50;;;;;;;3.00;91.27;101145.31;5026152;28;20387;-74
2023/01/03 10:59:16;;;;;;;0.50;0.50;;;;;;;2.77;91.98;101135.09;5027655;28;20026;-75
2023/01/03 11:02:11;;;;;;;0.43;0.43;;;;;;;2.55;91.64;101147.16;5043072;28;20024;-76
2023/01/03 11:04:36;;;;;;;0.50;0.50;;;;;;;2.31;92.20;101139.41;5027180;28;20017;-75
2023/01/03 11:07:11;;;;;;;0.50;0.50;;;;;;;2.25;92.96;101141.75;5027118;28;20058;-76
2023/01/03 11:09:57;;;;;;;0.50;0.50;;;;;;;2.25;93.90;101154.56;5027422;28;20022;-75
2023/01/03 11:12:29;;;;;;;0.47;0.47;;;;;;;2.14;94.02;101147.31;5027521;28;20064;-74
2023/01/03 11:14:56;;;;;;;0.50;0.50;;;;;;;2.12;94.09;101164.34;5042873;28;20021;-74
2023/01/03 11:17:25;;;;;;;0.50;0.50;;;;;;;1.97;94.08;101154.34;5027308;28;20097;-73
2023/01/03 11:19:51;;;;;;;0.50;0.50;;;;;;;1.81;94.06;101158.00;5027433;28;20478;-73
2023/01/03 11:23:00;;;;;;;0.50;0.50;;;;;;;1.76;94.64;101162.94;5042554;28;20124;-74
2023/01/03 11:25:38;;;;;;;0.50;0.50;;;;;;;1.77;95.25;101161.25;4985614;28;20027;-74
2023/01/03 11:28:40;;;;;;;0.50;0.50;;;;;;;1.76;95.75;101160.38;4985725;28;20122;-73
2023/01/03 11:31:07;;;;;;;;;;;;;;;1.76;95.82;101160.38;4986226;28;20038;-73
2023/01/03 11:33:39;;;;;;;0.50;0.50;;;;;;;1.69;95.47;101161.81;4985909;28;19933;-72
2023/01/03 11:36:04;;;;;;;0.60;0.60;;;;;;;1.56;95.49;101172.38;4985494;28;20170;-71
2023/01/03 11:39:17;;;;;;;0.50;0.50;;;;;;;1.47;95.77;101173.75;4985308;28;20031;-72
2023/01/03 11:42:16;;;;;;;0.50;0.50;;;;;;;1.40;95.93;101166.63;4927877;29;20436;-73
2023/01/03 11:44:54;;;;;;;0.50;0.50;;;;;;;1.35;95.94;101170.69;4927667;29;20129;-71
2023/01/03 11:47:31;;;;;;;0.50;0.50;;;;;;;1.37;96.31;101171.63;4927751;29;20064;-71
2023/01/03 11:49:59;;;;;;;0.50;0.50;;;;;;;1.38;96.31;101175.03;4911722;29;20032;-71
2023/01/03 11:52:43;;;;;;;0.50;0.50;;;;;;;1.27;96.16;101167.81;4927829;29;20032;-70
2023/01/03 11:55:36;;;;;;;0.50;0.50;;;;;;;1.23;96.25;101169.34;4929228;29;20062;-72
2023/01/03 11:58:09;;;;;;;0.50;0.50;;;;;;;1.16;96.41;101174.13;4946555;29;20038;-71
2023/01/03 12:00:57;;;;;;;0.63;0.63;;;;;;;1.16;96.60;101180.13;4946553;29;20031;-72
2023/01/03 12:03:49;;;;;;;0.55;0.55;;;;;;;1.22;97.04;101167.59;4930222;29;20031;-71
2023/01/03 12:06:24;;;;;;;0.60;0.60;;;;;;;1.27;97.13;101175.47;4924461;29;20071;-71
2023/01/03 12:09:12;;;;;;;0.50;0.50;;;;;;;1.28;97.12;101169.53;4930083;29;20028;-72
2023/01/03 12:11:52;;;;;;;0.50;0.50;;;;;;;1.26;96.93;101177.97;4946242;29;20083;-72
2023/01/03 12:14:25;;;;;;;0.60;0.60;;;;;;;1.18;96.96;101181.06;4946418;29;20043;-72
2023/01/03 12:16:58;;;;;;;0.60;0.60;;;;;;;1.13;97.26;101174.00;5026016;28;20026;-73
2023/01/03 12:19:46;;;;;;;0.50;0.50;;;;;;;1.18;97.24;101175.09;5026112;28;20033;-73
2023/01/03 12:22:21;;;;;;;0.47;0.47;;;;;;;1.24;97.13;101177.91;5026156;28;20030;-74
2023/01/03 12:25:12;;;;;;;0.50;0.50;;;;;;;1.27;97.53;101184.81;5026000;28;20026;-74
2023/01/03 12:27:43;;;;;;;0.60;0.60;;;;;;;1.35;97.45;101183.47;5025895;28;20025;-73
2023/01/03 12:30:27;;;;;;;0.50;0.50;;;;;;;1.32;97.50;101180.78;5026252;28;20037;-72
2023/01/03 12:32:58;;;;;;;0.50;0.50;;;;;;;1.32;97.52;101178.22;5040985;28;20049;-72
2023/01/03 12:35:29;;;;;;;0.50;0.50;;;;;;;1.27;97.34;101189.94;5024386;28;20041;-74
2023/01/03 12:37:56;;;;;;;0.50;0.50;;;;;;;1.21;97.27;101188.00;5025779;28;20050;-75
2023/01/03 12:40:25;;;;;;;0.40;0.40;;;;;;;1.16;97.27;101192.94;5025655;28;20316;-73
2023/01/03 12:43:17;;;;;;;0.50;0.50;;;;;;;1.15;97.60;101188.59;5025998;28;20041;-75
2023/01/03 12:45:59;;;;;;;0.52;0.52;;;;;;;1.27;97.91;101197.63;5041204;28;20022;-75
2023/01/03 12:48:43;;;;;;;0.50;0.50;;;;;;;1.37;98.16;101199.78;5025918;28;20075;-75